createdAt,value
2019-02-07T00:01:55.187Z,100.00
2019-02-07T00:04:35.632Z,100.00
2019-02-07T00:26:55.112Z,100.00
2019-02-07T00:29:36.326Z,100.00
2019-02-07T00:32:16.728Z,100.00
2019-02-07T00:34:57.358Z,100.00
2019-02-07T00:37:38.299Z,100.00
2019-02-07T00:40:18.499Z,100.00
2019-02-07T00:42:59.539Z,100.00
2019-02-07T00:45:40.476Z,100.00
2019-02-07T00:48:21.435Z,100.00
2019-02-07T00:51:02.181Z,100.00
2019-02-07T00:53:43.021Z,100.00
2019-02-07T00:56:23.496Z,100.00
2019-02-07T00:59:04.467Z,100.00
2019-02-07T01:01:45.230Z,100.00
2019-02-07T01:04:25.673Z,100.00
2019-02-07T01:07:06.876Z,100.00
2019-02-07T01:09:47.831Z,100.00
2019-02-07T01:12:28.241Z,100.00
2019-02-07T01:15:09.468Z,100.00
2019-02-07T01:17:50.188Z,100.00
2019-02-07T01:20:31.226Z,100.00
2019-02-07T01:23:11.760Z,100.00
2019-02-07T01:25:51.721Z,100.00
2019-02-07T01:28:31.877Z,100.00
2019-02-07T01:31:12.762Z,100.00
2019-02-07T01:33:53.604Z,100.00
2019-02-07T01:36:34.303Z,100.00
2019-02-07T01:39:15.693Z,100.00
2019-02-07T01:41:55.950Z,100.00
2019-02-07T01:44:36.509Z,100.00
2019-02-07T01:47:17.199Z,100.00
2019-02-07T01:49:57.433Z,100.00
2019-02-07T01:52:37.476Z,100.00
2019-02-07T01:55:18.292Z,100.00
2019-02-07T01:57:59.747Z,100.00
2019-02-07T02:00:40.396Z,100.00
2019-02-07T02:03:21.600Z,100.00
2019-02-07T02:06:01.640Z,100.00
2019-02-07T02:08:42.798Z,100.00
2019-02-07T02:11:23.879Z,100.00
2019-02-07T02:14:04.855Z,100.00
2019-02-07T02:16:45.116Z,100.00
2019-02-07T02:19:26.627Z,100.00
2019-02-07T02:22:08.005Z,100.00
2019-02-07T02:24:49.296Z,100.00
2019-02-07T02:27:30.339Z,100.00
2019-02-07T02:30:11.633Z,100.00
2019-02-07T02:32:52.607Z,100.00
2019-02-07T02:35:33.488Z,100.00
2019-02-07T02:38:13.901Z,100.00
2019-02-07T02:40:54.665Z,100.00
2019-02-07T02:43:35.510Z,100.00
2019-02-07T02:46:16.029Z,100.00
2019-02-07T02:48:56.711Z,100.00
2019-02-07T02:54:24.808Z,100.00
2019-02-07T02:57:05.270Z,98.28
2019-02-07T02:59:46.236Z,97.57
2019-02-07T03:02:26.628Z,95.55
2019-02-07T03:05:07.592Z,94.66
2019-02-07T03:07:48.831Z,93.79
2019-02-07T03:10:29.854Z,92.86
2019-02-07T03:13:11.060Z,90.76
2019-02-07T03:15:52.646Z,89.50
2019-02-07T03:18:33.296Z,88.87
2019-02-07T03:21:14.893Z,86.60
2019-02-07T03:23:55.620Z,85.10
2019-02-07T03:26:36.972Z,83.98
2019-02-07T03:29:18.182Z,83.81
2019-02-07T03:31:58.840Z,83.56
2019-02-07T03:34:39.816Z,81.48
2019-02-07T03:37:20.564Z,82.86
2019-02-07T03:40:01.173Z,83.64
2019-02-07T03:42:42.246Z,82.45
2019-02-07T03:45:22.546Z,75.44
2019-02-07T03:48:03.679Z,74.99
2019-02-07T03:50:44.603Z,69.55
2019-02-07T03:53:25.346Z,70.43
2019-02-07T03:56:06.482Z,68.55
2019-02-07T03:58:47.571Z,67.62
2019-02-07T04:01:28.516Z,67.96
2019-02-07T04:04:09.526Z,67.19
2019-02-07T04:06:49.950Z,61.90
2019-02-07T04:09:31.530Z,62.58
2019-02-07T04:12:11.824Z,61.52
2019-02-07T04:14:54.139Z,61.25
2019-02-07T04:17:34.530Z,58.63
2019-02-07T04:20:15.696Z,60.88
2019-02-07T04:22:56.464Z,56.28
2019-02-07T04:25:37.517Z,56.07
2019-02-07T04:28:18.195Z,53.82
2019-02-07T04:30:59.271Z,56.32
2019-02-07T04:33:39.390Z,55.50
2019-02-07T04:36:20.185Z,54.27
2019-02-07T04:39:00.960Z,55.89
2019-02-07T04:41:41.237Z,55.37
2019-02-07T04:44:21.582Z,55.06
2019-02-07T04:47:01.598Z,51.23
2019-02-07T04:49:42.764Z,45.66
2019-02-07T04:52:23.431Z,45.14
2019-02-07T04:55:03.465Z,46.50
2019-02-07T04:57:44.061Z,47.80
2019-02-07T05:00:24.838Z,48.30
2019-02-07T05:03:05.998Z,47.47
2019-02-07T05:05:46.892Z,47.10
2019-02-07T05:08:28.100Z,48.01
2019-02-07T05:11:09.019Z,50.22
2019-02-07T05:13:49.064Z,49.51
2019-02-07T05:16:39.161Z,49.86
2019-02-07T05:19:11.759Z,49.01
2019-02-07T05:21:52.720Z,49.70
2019-02-07T05:24:33.287Z,50.68
2019-02-07T05:27:13.654Z,48.15
2019-02-07T05:29:54.402Z,50.24
2019-02-07T05:32:36.246Z,49.50
2019-02-07T05:35:16.356Z,49.79
2019-02-07T05:37:57.632Z,48.40
2019-02-07T05:40:39.063Z,46.11
2019-02-07T05:43:20.126Z,47.49
2019-02-07T05:46:01.270Z,47.20
2019-02-07T05:48:41.966Z,46.93
2019-02-07T05:51:22.888Z,46.39
2019-02-07T05:54:03.820Z,46.25
2019-02-07T05:56:44.580Z,46.72
2019-02-07T05:59:25.541Z,45.51
2019-02-07T06:02:06.402Z,45.96
2019-02-07T06:04:46.780Z,44.96
2019-02-07T06:07:27.979Z,44.73
2019-02-07T06:10:08.717Z,43.71
2019-02-07T06:12:49.260Z,45.72
2019-02-07T06:15:30.229Z,46.05
2019-02-07T06:18:11.083Z,44.92
2019-02-07T06:20:51.777Z,44.07
2019-02-07T06:23:32.441Z,47.03
2019-02-07T06:26:13.431Z,45.93
2019-02-07T06:28:54.105Z,45.29
2019-02-07T06:31:35.484Z,44.83
2019-02-07T06:34:15.833Z,44.48
2019-02-07T06:36:57.278Z,42.98
2019-02-07T06:39:38.312Z,44.52
2019-02-07T06:42:18.990Z,43.85
2019-02-07T06:45:00.236Z,43.40
2019-02-07T06:47:41.091Z,43.84
2019-02-07T06:50:22.138Z,43.91
2019-02-07T06:53:03.088Z,41.76
2019-02-07T06:55:44.009Z,42.19
2019-02-07T06:58:25.251Z,41.27
2019-02-07T07:01:05.977Z,42.57
2019-02-07T07:03:47.192Z,42.62
2019-02-07T07:06:27.629Z,41.56
2019-02-07T07:09:08.687Z,42.19
2019-02-07T07:11:49.813Z,39.58
2019-02-07T07:14:30.254Z,38.84
2019-02-07T07:17:11.123Z,39.18
2019-02-07T07:19:51.978Z,39.95
2019-02-07T07:22:32.993Z,39.04
2019-02-07T07:25:13.652Z,41.00
2019-02-07T07:27:54.612Z,39.96
2019-02-07T07:30:35.185Z,41.29
2019-02-07T07:33:16.234Z,39.44
2019-02-07T07:35:57.168Z,39.84
2019-02-07T07:38:37.835Z,39.59
2019-02-07T07:41:18.727Z,40.19
2019-02-07T07:43:59.434Z,39.39
2019-02-07T07:46:39.773Z,40.94
2019-02-07T07:49:20.642Z,38.26
2019-02-07T07:52:01.622Z,39.27
2019-02-07T07:54:42.839Z,38.34
2019-02-07T07:57:23.849Z,37.97
2019-02-07T08:00:05.153Z,37.60
2019-02-07T08:02:45.727Z,38.06
2019-02-07T08:08:02.945Z,39.63
2019-02-07T08:10:44.113Z,36.90
2019-02-07T08:13:24.557Z,36.28
2019-02-07T08:16:06.132Z,35.23
2019-02-07T08:18:47.084Z,36.15
2019-02-07T08:21:28.101Z,36.69
2019-02-07T08:24:09.347Z,36.54
2019-02-07T08:26:50.143Z,35.52
2019-02-07T08:29:31.513Z,35.90
2019-02-07T08:32:12.945Z,36.50
2019-02-07T08:34:54.378Z,38.02
2019-02-07T08:37:35.385Z,38.62
2019-02-07T08:40:16.394Z,38.39
2019-02-07T08:42:57.318Z,37.49
2019-02-07T08:45:38.186Z,39.39
2019-02-07T08:48:18.853Z,39.48
2019-02-07T08:50:59.833Z,40.24
2019-02-07T08:53:41.115Z,38.69
2019-02-07T08:56:22.124Z,38.48
2019-02-07T08:59:03.187Z,36.32
2019-02-07T09:01:44.268Z,37.28
2019-02-07T09:04:25.546Z,36.12
2019-02-07T09:07:06.609Z,36.19
2019-02-07T09:09:47.294Z,35.57
2019-02-07T09:12:28.416Z,37.52
2019-02-07T09:15:08.776Z,36.48
2019-02-07T09:17:49.620Z,36.81
2019-02-07T09:20:31.006Z,36.65
2019-02-07T09:23:11.462Z,37.22
2019-02-07T09:25:52.079Z,36.75
2019-02-07T09:43:34.353Z,37.35
2019-02-07T09:46:15.076Z,37.99
2019-02-07T09:48:55.938Z,37.61
2019-02-07T09:51:36.656Z,38.96
2019-02-07T09:54:17.539Z,36.90
2019-02-07T09:56:58.564Z,37.05
2019-02-07T09:59:39.793Z,37.66
2019-02-07T10:02:20.815Z,38.27
2019-02-07T10:05:01.407Z,39.26
2019-02-07T10:07:42.139Z,38.03
2019-02-07T10:10:23.004Z,39.40
2019-02-07T10:13:03.991Z,39.33
2019-02-07T10:15:44.677Z,40.45
2019-02-07T10:18:32.826Z,39.41
2019-02-07T10:21:07.946Z,39.89
2019-02-07T10:23:49.450Z,40.28
2019-02-07T10:26:30.662Z,40.71
2019-02-07T10:29:11.592Z,40.67
2019-02-07T10:31:53.238Z,41.11
2019-02-07T10:34:33.768Z,41.29
2019-02-07T10:37:15.132Z,41.37
2019-02-07T10:39:55.918Z,43.22
2019-02-07T10:42:36.885Z,42.44
2019-02-07T10:45:17.834Z,44.38
2019-02-07T10:47:59.121Z,47.00
2019-02-07T10:50:40.283Z,45.50
2019-02-07T10:53:20.763Z,44.06
2019-02-07T10:56:01.760Z,47.28
2019-02-07T10:58:42.286Z,46.27
2019-02-07T11:01:22.575Z,47.92
2019-02-07T11:04:03.479Z,47.57
2019-02-07T11:06:44.563Z,47.62
2019-02-07T11:09:25.155Z,46.65
2019-02-07T11:12:05.779Z,47.90
2019-02-07T11:14:46.735Z,49.01
2019-02-07T11:17:27.486Z,49.30
2019-02-07T11:20:08.482Z,49.83
2019-02-07T11:22:48.651Z,51.09
2019-02-07T11:25:29.575Z,51.85
2019-02-07T11:28:10.960Z,52.98
2019-02-07T11:30:51.827Z,54.24
2019-02-07T11:33:32.845Z,55.71
2019-02-07T11:36:13.487Z,56.26
2019-02-07T11:38:53.977Z,58.55
2019-02-07T11:41:34.278Z,59.41
2019-02-07T11:44:14.872Z,61.08
2019-02-07T11:47:05.146Z,61.06
2019-02-07T11:49:37.755Z,62.54
2019-02-07T11:52:18.641Z,64.40
2019-02-07T11:54:59.292Z,65.28
2019-02-07T11:57:39.751Z,65.06
2019-02-07T12:00:20.912Z,66.12
2019-02-07T12:03:01.613Z,66.00
2019-02-07T12:05:42.870Z,68.04
2019-02-07T12:08:23.422Z,69.06
2019-02-07T12:11:04.409Z,69.53
2019-02-07T12:13:44.992Z,70.62
2019-02-07T12:16:25.849Z,72.08
2019-02-07T12:19:17.506Z,73.15
2019-02-07T12:21:48.630Z,74.13
2019-02-07T12:24:29.185Z,75.26
2019-02-07T12:27:09.542Z,75.87
2019-02-07T12:29:50.447Z,75.31
2019-02-07T12:32:31.479Z,75.72
2019-02-07T12:35:12.141Z,76.50
2019-02-07T12:37:53.113Z,77.40
2019-02-07T12:40:34.266Z,78.22
2019-02-07T12:43:15.260Z,79.34
2019-02-07T14:59:06.617Z,98.46
2019-02-07T15:01:48.702Z,98.89
2019-02-07T15:11:36.067Z,100.00
2019-02-07T15:14:21.016Z,100.00
2019-02-07T15:17:02.371Z,100.00
2019-02-07T15:19:44.154Z,100.00
2019-02-07T15:22:29.420Z,100.00
2019-02-07T15:25:12.909Z,99.90
2019-02-07T15:27:59.126Z,100.00
2019-02-07T15:30:46.493Z,100.00
2019-02-07T15:33:32.235Z,99.87
2019-02-07T15:36:15.192Z,100.00
2019-02-07T15:38:57.572Z,100.00
2019-02-07T15:41:43.602Z,100.00
2019-02-07T15:44:25.741Z,100.00
2019-02-07T15:47:08.751Z,100.00
2019-02-07T15:49:50.487Z,100.00
2019-02-07T15:52:31.052Z,100.00
2019-02-07T15:55:11.934Z,100.00
2019-02-07T15:57:53.213Z,100.00
2019-02-07T16:00:34.210Z,100.00
2019-02-07T16:03:15.579Z,100.00
2019-02-07T16:05:56.837Z,100.00
2019-02-07T16:08:37.300Z,100.00
2019-02-07T16:11:18.161Z,100.00
2019-02-07T16:13:59.432Z,100.00
2019-02-07T16:16:40.420Z,100.00
2019-02-07T16:19:21.367Z,100.00
2019-02-07T16:22:02.249Z,100.00
2019-02-07T16:24:43.322Z,100.00
2019-02-07T16:27:24.336Z,100.00
2019-02-07T16:30:04.901Z,100.00
2019-02-07T16:32:45.156Z,100.00
2019-02-07T16:35:25.512Z,100.00
2019-02-07T16:38:06.257Z,100.00
2019-02-07T16:40:48.684Z,100.00
2019-02-07T16:43:29.197Z,100.00
2019-02-07T16:46:10.338Z,100.00
2019-02-07T16:48:50.918Z,100.00
2019-02-07T16:51:31.960Z,100.00
2019-02-07T16:54:12.638Z,100.00
2019-02-07T16:56:53.625Z,100.00
2019-02-07T16:59:34.573Z,100.00
2019-02-07T17:02:15.141Z,100.00
2019-02-07T17:04:55.797Z,100.00
2019-02-07T17:07:38.933Z,100.00
2019-02-07T17:10:20.281Z,100.00
2019-02-07T17:13:05.533Z,100.00
2019-02-07T17:15:47.863Z,100.00
2019-02-07T17:18:28.541Z,100.00
2019-02-07T17:21:11.841Z,100.00
2019-02-07T17:23:50.843Z,100.00
2019-02-07T17:26:31.793Z,100.00
2019-02-07T17:32:24.651Z,100.00
2019-02-07T17:35:05.445Z,100.00
2019-02-07T17:37:45.488Z,100.00
2019-02-07T17:43:10.198Z,100.00
2019-02-07T17:46:00.343Z,100.00
2019-02-07T17:48:42.592Z,100.00
2019-02-07T17:51:23.603Z,100.00
2019-02-07T17:54:04.538Z,100.00
2019-02-07T17:56:45.291Z,100.00
2019-02-07T17:59:26.476Z,100.00
2019-02-07T18:02:07.403Z,100.00
2019-02-07T18:04:48.461Z,100.00
2019-02-07T18:07:29.674Z,100.00
2019-02-07T18:10:10.358Z,100.00
2019-02-07T18:12:51.124Z,100.00
2019-02-07T18:15:32.209Z,100.00
2019-02-07T18:18:12.482Z,100.00
2019-02-07T18:20:53.243Z,100.00
2019-02-07T18:23:34.447Z,100.00
2019-02-07T18:26:14.870Z,100.00
2019-02-07T18:28:56.154Z,100.00
2019-02-07T18:31:36.738Z,100.00
2019-02-07T18:34:17.960Z,100.00
2019-02-07T18:36:58.907Z,100.00
2019-02-07T18:39:39.900Z,100.00
2019-02-07T18:42:20.931Z,100.00
2019-02-07T18:45:01.670Z,100.00
2019-02-07T18:47:44.914Z,100.00
2019-02-07T18:50:25.807Z,100.00
2019-02-07T18:53:06.555Z,100.00
2019-02-07T18:55:47.678Z,100.00
2019-02-07T18:58:29.060Z,100.00
2019-02-07T19:01:09.833Z,100.00
2019-02-07T19:03:50.915Z,100.00
2019-02-07T19:06:32.120Z,100.00
2019-02-07T19:09:13.016Z,100.00
2019-02-07T19:11:53.632Z,100.00
2019-02-07T19:14:34.937Z,100.00
2019-02-07T19:17:15.865Z,100.00
2019-02-07T19:19:57.225Z,100.00
2019-02-07T19:22:38.494Z,100.00
2019-02-07T19:25:18.953Z,100.00
2019-02-07T19:27:59.835Z,100.00
2019-02-07T19:30:40.586Z,100.00
2019-02-07T19:33:22.568Z,100.00
2019-02-07T19:36:03.230Z,100.00
2019-02-07T19:38:44.275Z,100.00
2019-02-07T19:41:24.937Z,100.00
2019-02-07T19:44:05.888Z,100.00
2019-02-07T19:46:46.751Z,100.00
2019-02-07T19:49:27.759Z,100.00
2019-02-07T19:52:09.153Z,100.00
2019-02-07T19:54:50.297Z,100.00
2019-02-07T19:57:31.327Z,100.00
2019-02-07T20:00:12.283Z,100.00
2019-02-07T20:02:53.569Z,100.00
2019-02-07T20:05:34.878Z,100.00
2019-02-07T20:08:16.317Z,100.00
2019-02-07T20:10:57.389Z,100.00
2019-02-07T20:13:38.351Z,100.00
2019-02-07T20:16:19.496Z,100.00
2019-02-07T20:19:01.013Z,100.00
2019-02-07T20:21:42.512Z,100.00
2019-02-07T20:24:23.185Z,100.00
2019-02-07T20:27:04.202Z,100.00
2019-02-07T20:29:45.352Z,100.00
2019-02-07T20:32:27.887Z,100.00
2019-02-07T20:35:09.203Z,100.00
2019-02-07T20:37:49.859Z,100.00
2019-02-07T20:40:30.989Z,100.00
2019-02-07T20:43:12.698Z,100.00
2019-02-07T20:45:53.415Z,100.00
2019-02-07T20:48:34.187Z,100.00
2019-02-07T20:51:14.812Z,100.00
2019-02-07T20:53:56.224Z,100.00
2019-02-07T20:56:36.703Z,100.00
2019-02-07T20:59:17.893Z,100.00
2019-02-07T21:01:58.513Z,100.00
2019-02-07T21:04:39.093Z,100.00
2019-02-07T21:07:20.065Z,100.00
2019-02-07T21:10:00.743Z,100.00
2019-02-07T21:12:41.522Z,100.00
2019-02-07T21:15:22.362Z,100.00
2019-02-07T21:18:03.057Z,100.00
2019-02-07T21:20:43.868Z,100.00
2019-02-07T21:23:24.687Z,100.00
2019-02-07T21:26:06.118Z,100.00
2019-02-07T21:28:46.516Z,100.00
2019-02-07T21:31:28.754Z,100.00
2019-02-07T21:34:09.904Z,100.00
2019-02-07T21:36:50.916Z,100.00
2019-02-07T21:39:32.345Z,100.00
2019-02-07T21:42:13.538Z,100.00
2019-02-07T21:44:54.153Z,100.00
2019-02-07T21:47:34.490Z,100.00
2019-02-07T21:50:14.813Z,100.00
2019-02-07T21:52:55.582Z,100.00
2019-02-07T21:55:36.665Z,100.00
2019-02-07T21:58:17.117Z,100.00
2019-02-07T22:00:57.997Z,100.00
2019-02-07T22:03:38.918Z,100.00
2019-02-07T22:06:19.933Z,100.00
2019-02-07T22:09:00.868Z,100.00
2019-02-07T22:11:41.471Z,100.00
2019-02-07T22:14:22.746Z,100.00
2019-02-07T22:17:03.661Z,100.00
2019-02-07T22:19:44.479Z,100.00
2019-02-07T22:22:25.407Z,100.00
2019-02-07T22:25:06.940Z,100.00
2019-02-07T22:27:48.379Z,100.00
2019-02-07T22:30:29.566Z,100.00
2019-02-07T22:33:10.458Z,100.00
2019-02-07T22:35:51.187Z,100.00
2019-02-07T22:38:32.057Z,100.00
2019-02-07T22:41:13.351Z,100.00
2019-02-07T22:43:54.443Z,100.00
2019-02-07T22:46:35.698Z,100.00
2019-02-07T22:49:16.529Z,100.00
2019-02-07T22:54:42.763Z,100.00
2019-02-07T22:57:23.598Z,100.00
2019-02-07T23:00:04.810Z,100.00
2019-02-07T23:02:45.605Z,100.00
2019-02-07T23:05:26.493Z,100.00
2019-02-07T23:08:07.409Z,100.00
2019-02-07T23:10:49.014Z,100.00
2019-02-07T23:13:30.340Z,100.00
2019-02-07T23:16:11.603Z,100.00
2019-02-07T23:18:52.666Z,100.00
2019-02-07T23:21:33.383Z,100.00
2019-02-07T23:24:14.496Z,100.00
2019-02-07T23:26:55.754Z,100.00
2019-02-07T23:29:36.814Z,100.00
2019-02-07T23:32:17.598Z,100.00
2019-02-07T23:34:58.623Z,100.00
2019-02-07T23:37:39.577Z,100.00
2019-02-07T23:40:20.583Z,100.00
2019-02-07T23:43:02.244Z,100.00
2019-02-07T23:45:43.532Z,100.00
2019-02-07T23:48:24.584Z,100.00
2019-02-07T23:51:05.679Z,100.00
2019-02-07T23:53:46.693Z,100.00
2019-02-07T23:56:27.366Z,100.00
2019-02-07T23:59:08.935Z,100.00
